Date,TemperatureHighF,TemperatureAvgF,TemperatureLowF,DewpointHighF,DewpointAvgF,DewpointLowF,HumidityHigh,HumidityAvg,HumidityLow,PressureMaxIn,PressureMinIn,WindSpeedMaxMPH,WindSpeedAvgMPH,GustSpeedMaxMPH,PrecipitationSumIn
2013-1-1,21.9,14.9,10.2,12.9,7.0,2.4,71,64,51,30.11,30.00,3,0,4,0.00
2013-1-2,22.2,14.4,8.0,5.5,2.7,-1.7,63,54,41,30.22,30.09,11,0,11,0.00
2013-1-3,25.8,16.2,7.8,4.4,-0.6,-3.8,59,44,30,30.24,30.17,8,0,57,0.00
2013-1-4,36.3,25.9,16.5,9.6,3.1,-4.3,42,34,28,30.20,30.07,9,0,9,0.00
2013-1-5,32.7,24.1,19.5,14.5,8.6,3.6,56,47,41,30.30,30.08,12,1,15,0.00
2013-1-6,39.5,28.8,18.3,12.7,7.1,1.4,57,37,26,30.28,30.07,8,0,8,0.00
2013-1-7,43.1,34.1,26.0,13.5,10.6,7.0,43,35,24,30.11,29.97,8,0,8,0.00
2013-1-8,46.4,34.7,26.9,16.5,10.2,2.1,50,34,25,30.28,29.93,11,0,11,0.00
2013-1-9,41.0,30.5,24.0,19.6,14.4,10.4,58,47,35,30.38,30.15,11,1,11,0.00
2013-1-10,41.3,33.3,25.8,17.0,13.7,10.1,52,41,30,30.15,29.71,6,0,10,0.00
2013-1-11,33.2,23.6,12.0,19.6,4.4,-9.0,64,41,24,29.82,29.51,12,1,12,0.00
2013-1-12,16.1,9.1,3.3,-1.0,-6.9,-12.6,57,44,34,29.92,29.81,8,0,8,0.00
2013-1-13,16.5,6.3,0.6,5.6,-3.6,-8.3,64,58,46,30.00,29.90,7,0,7,0.00
2013-1-14,16.1,7.5,-0.1,7.1,-0.6,-9.1,66,63,58,30.01,29.93,0,0,0,0.00
2013-1-15,24.6,13.8,-0.1,14.6,2.6,-9.1,62,55,44,30.14,29.97,10,1,12,0.00
2013-1-16,39.2,29.3,22.4,21.0,16.2,12.2,64,53,42,30.37,30.13,9,0,10,0.00
2013-1-17,39.0,28.4,22.1,21.5,15.6,11.5,63,54,42,30.43,30.28,5,0,6,0.00
2013-1-18,46.0,32.8,25.5,14.1,7.4,-99.9,53,33,19,30.28,30.17,6,0,7,0.00
2013-1-19,45.8,34.2,25.3,10.1,6.8,2.3,36,29,20,30.32,30.17,8,0,8,0.00
2013-1-20,40.2,31.7,21.0,10.9,5.8,0.2,57,31,22,30.28,30.18,15,1,16,0.00
2013-1-21,44.4,30.5,19.2,15.9,10.7,4.6,63,41,27,30.23,30.16,6,0,9,0.00
2013-1-22,52.8,38.5,29.6,4.6,-69.5,-99.9,31,18,11,30.28,30.16,14,0,14,0.00
2013-1-23,56.6,42.6,33.0,3.7,-96.3,-99.9,22,15,10,30.31,30.24,5,0,5,0.00
2013-1-24,55.7,44.2,35.0,20.6,-35.1,-99.9,42,22,14,30.25,30.10,7,0,9,0.00
2013-1-25,41.5,34.6,30.0,23.9,19.9,15.2,60,50,42,30.27,30.16,8,0,10,0.00
2013-1-26,48.5,38.5,31.2,27.9,24.0,19.8,62,52,37,30.16,29.89,5,0,6,0.00
2013-1-27,50.1,39.2,30.9,28.6,23.2,15.3,69,51,29,29.95,29.86,8,0,11,0.00
2013-1-28,48.3,34.1,23.1,26.3,20.3,16.4,78,54,29,29.91,29.72,12,2,12,0.00
2013-1-29,23.5,16.7,11.4,19.4,10.8,3.9,78,71,50,29.93,29.72,16,2,16,0.00
2013-1-30,29.4,18.3,5.1,17.3,9.5,-1.1,76,63,51,29.98,29.88,10,0,10,0.10
2013-1-31,35.7,26.8,19.2,18.2,13.9,9.0,63,53,42,30.18,29.97,8,0,9,0.04
2013-2-1,38.6,28.3,20.6,17.8,13.6,10.1,62,50,34,30.24,30.10,16,1,16,0.00
2013-2-2,44.6,30.3,20.6,22.4,14.6,11.6,66,50,25,30.33,30.22,7,0,10,0.00
2013-2-3,47.1,34.7,25.3,23.5,15.2,7.3,57,43,22,30.29,30.02,6,0,6,0.00
2013-2-4,41.7,31.8,23.1,18.7,12.8,6.6,51,42,32,30.07,30.00,12,0,12,0.00
2013-2-5,44.6,33.6,25.8,18.6,14.9,12.2,52,43,31,30.14,30.01,8,1,8,0.00
2013-2-6,48.0,36.4,24.8,27.5,20.8,15.4,82,51,32,30.11,29.95,12,1,12,0.00
2013-2-7,36.8,28.0,21.5,25.8,21.2,16.3,84,70,56,30.20,30.11,11,1,11,0.06
2013-2-8,40.2,30.6,22.2,23.2,18.2,13.9,67,56,42,30.13,29.87,13,1,15,0.02
2013-2-9,38.6,26.0,17.9,22.5,17.8,14.1,80,66,47,29.88,29.63,16,2,16,0.02
2013-2-10,24.9,19.5,15.4,17.8,13.3,8.6,79,70,57,30.03,29.67,12,2,15,0.00
2013-2-11,20.8,15.9,12.2,14.9,10.3,6.1,75,71,68,30.03,29.96,14,1,16,0.00
2013-2-12,28.7,19.2,11.1,10.8,5.1,1.0,72,52,30,30.06,30.01,9,0,10,0.02
2013-2-13,38.8,26.9,16.8,16.4,10.4,2.3,54,46,32,30.08,30.00,11,1,16,0.02
2013-2-14,33.2,21.4,13.8,20.4,12.6,8.5,75,63,48,30.23,30.05,15,2,20,0.02
2013-2-15,29.3,19.3,12.5,16.6,11.4,6.4,73,65,47,30.26,30.18,18,1,18,0.00
2013-2-16,44.9,31.0,16.7,19.1,14.0,10.1,71,47,29,30.24,30.10,8,0,8,0.00
2013-2-17,48.5,34.8,21.7,11.1,-16.5,-99.9,55,31,16,30.10,29.77,11,1,12,0.00
2013-2-18,32.1,22.4,16.1,15.7,9.6,1.5,77,55,32,30.10,29.85,16,2,16,0.00
2013-2-19,33.6,23.8,14.7,16.1,10.1,2.0,70,51,41,30.09,29.87,9,0,9,0.00
2013-2-20,31.8,24.3,17.2,24.4,16.5,9.6,80,66,49,29.87,29.71,9,0,9,0.02
2013-2-21,18.6,13.9,9.6,13.2,9.7,5.9,79,76,71,29.90,29.70,16,3,16,0.02
2013-2-22,28.9,19.0,9.3,20.2,13.2,3.8,77,71,62,29.96,29.87,7,0,10,0.00
2013-2-23,38.4,25.2,11.4,21.9,14.0,5.0,72,58,36,29.92,29.75,11,0,13,0.06
2013-2-24,24.2,18.7,13.4,19.8,16.3,11.8,86,82,73,30.03,29.76,22,6,22,0.02
2013-2-25,29.1,18.4,8.9,16.3,10.6,6.6,85,67,40,30.04,29.90,14,2,16,0.06
2013-2-26,26.4,19.8,14.7,16.5,12.8,7.1,84,68,47,30.07,29.85,16,3,16,0.06
2013-2-27,29.6,19.1,12.5,15.3,11.0,4.0,84,66,40,30.20,30.07,16,2,16,0.02
2013-2-28,33.8,22.7,12.0,12.5,7.6,1.6,62,49,32,30.23,30.17,12,1,12,0.02
2013-3-1,37.2,27.4,18.3,19.1,14.7,9.8,65,54,43,30.34,30.21,10,1,10,0.00
2013-3-2,47.4,36.1,26.0,25.6,21.2,16.4,62,51,37,30.34,30.18,7,0,7,0.00
2013-3-3,51.0,40.0,30.2,23.1,21.7,18.7,58,45,29,30.18,29.87,6,0,7,0.00
2013-3-4,35.7,24.1,10.2,23.4,16.9,5.0,80,68,53,30.18,29.86,14,2,23,0.00
2013-3-5,36.5,21.7,8.7,24.5,14.7,3.6,78,68,54,30.24,30.16,12,1,12,0.08
2013-3-6,51.8,36.8,22.8,26.2,20.2,14.4,76,49,26,30.17,30.01,5,0,5,0.02
2013-3-7,53.4,41.3,32.1,22.8,18.4,14.2,59,38,25,30.11,30.02,11,0,11,0.00
2013-3-8,49.1,39.0,30.0,28.9,24.4,18.5,77,52,38,30.08,29.80,8,0,8,0.00
2013-3-9,30.3,23.9,16.5,26.1,21.8,12.0,89,83,75,30.05,29.75,19,6,29,0.00
2013-3-10,28.9,22.0,15.0,17.2,14.5,11.9,83,67,52,30.12,30.05,20,3,21,0.02
2013-3-11,46.7,32.1,23.5,23.8,19.2,13.6,81,56,35,30.14,30.03,10,1,10,0.02
2013-3-12,29.1,26.3,23.9,24.9,22.6,20.5,82,78,76,30.27,30.14,8,0,9,0.00
2013-3-13,53.0,38.1,26.0,29.2,24.7,22.0,80,57,33,30.35,30.25,6,0,8,0.00
2013-3-14,58.2,47.5,34.1,26.9,24.0,21.7,57,38,26,30.38,30.30,7,0,7,0.00
2013-3-15,61.5,48.3,37.7,27.4,23.0,19.2,50,35,21,30.30,30.08,6,0,9,0.00
2013-3-16,46.4,39.3,33.2,29.4,25.3,21.0,74,53,41,30.14,29.99,10,1,12,0.00
2013-3-17,51.0,37.0,29.1,30.4,23.9,13.7,75,57,29,30.00,29.74,12,0,12,0.04
2013-3-18,42.6,30.7,19.9,16.0,11.6,7.8,56,42,26,30.04,29.94,8,0,12,0.02
2013-3-19,43.1,33.1,26.4,13.2,10.4,6.2,44,36,26,30.29,30.02,13,1,13,0.00
2013-3-20,43.5,31.2,19.4,19.4,14.2,8.3,61,46,32,30.30,29.92,9,0,10,0.00
2013-3-21,50.3,37.0,27.6,30.0,22.8,17.8,73,53,31,29.94,29.73,15,0,15,0.00
2013-3-22,38.6,28.4,18.8,23.7,21.2,16.1,81,69,46,29.95,29.76,20,4,25,0.00
2013-3-23,18.6,11.9,7.8,15.9,8.6,3.5,81,78,74,30.11,29.87,20,5,57,0.00
2013-3-24,23.0,13.0,5.7,10.8,5.1,0.9,74,64,47,30.13,30.02,14,1,14,0.08
2013-3-25,30.3,17.6,5.9,14.6,7.5,-0.5,73,59,43,30.20,30.12,11,1,11,0.04
2013-3-26,47.6,30.6,14.1,24.0,16.4,6.7,68,53,33,30.19,30.03,8,0,11,0.00
2013-3-27,50.1,36.6,25.5,28.8,23.6,18.3,69,56,36,30.21,30.06,9,1,10,0.00
2013-3-28,52.8,41.4,30.2,29.9,26.0,23.6,70,52,31,30.24,30.15,9,0,9,0.00
2013-3-29,56.4,44.1,34.7,29.5,26.6,24.8,62,48,28,30.25,30.18,16,0,16,0.00
2013-3-30,58.8,42.5,32.1,30.7,25.8,22.0,79,51,26,30.27,30.14,13,2,15,0.00
2013-3-31,60.8,42.4,29.1,32.8,23.0,-99.9,80,52,18,30.25,30.10,8,1,9,0.00
2013-4-1,48.3,37.0,28.5,30.1,24.0,18.0,69,55,41,30.20,30.10,13,1,13,0.00
2013-4-2,35.0,31.1,28.0,29.8,26.4,23.0,82,76,68,30.16,30.10,3,0,57,0.02
2013-4-3,48.3,37.1,29.1,36.4,27.0,20.1,84,64,32,30.24,30.13,15,1,15,0.06
2013-4-4,60.2,45.1,32.7,27.8,24.4,20.3,66,44,25,30.26,30.17,10,1,10,0.02
2013-4-5,63.1,48.8,38.1,30.1,23.4,20.8,49,35,20,30.19,29.95,7,0,11,0.00
2013-4-6,57.5,45.6,33.2,27.8,24.2,19.5,56,41,27,30.09,30.02,13,1,16,0.00
2013-4-7,57.3,44.1,32.3,27.8,23.9,19.9,67,44,24,30.04,29.91,12,1,16,0.00
2013-4-8,60.8,43.3,21.9,27.7,23.4,18.2,78,45,22,29.93,29.67,22,3,23,0.00
2013-4-9,21.9,8.2,1.7,18.2,4.7,-2.1,82,78,74,30.05,29.84,22,7,31,0.00
2013-4-10,21.3,11.2,-0.4,12.6,5.3,-4.4,77,70,60,30.03,29.95,13,3,23,0.00
2013-4-11,45.5,31.1,15.6,30.7,21.8,9.3,76,64,45,30.03,29.84,13,2,23,0.02
2013-4-12,49.8,36.1,28.2,32.1,27.7,24.2,78,67,39,30.09,29.99,12,1,12,0.02
2013-4-13,60.0,42.7,15.6,34.9,26.0,-13.4,83,54,22,30.08,29.67,10,1,12,0.00
2013-4-14,47.6,39.0,31.2,28.7,21.3,9.3,75,48,26,29.91,29.69,8,1,13,0.06
2013-4-15,48.2,30.1,21.9,20.8,14.3,-99.9,76,52,27,30.04,29.82,14,4,26,0.06
2013-4-16,36.1,26.3,20.8,29.7,21.9,17.6,82,76,65,30.04,29.89,17,2,17,0.02
2013-4-17,30.0,22.4,11.4,25.5,19.0,9.1,83,79,74,30.05,29.91,21,2,21,0.02
2013-4-18,26.9,17.3,8.4,17.4,11.6,5.2,83,72,59,30.16,30.03,12,2,17,0.02
2013-4-19,45.3,31.7,17.0,23.9,17.4,9.2,67,52,34,30.15,30.06,7,0,7,0.02
2013-4-20,49.4,38.8,28.7,29.2,24.4,18.2,71,52,35,30.14,30.01,9,0,9,0.00
2013-4-21,56.4,42.3,30.5,28.4,25.3,22.2,72,50,27,30.18,30.10,9,0,9,0.00
2013-4-22,50.1,30.2,15.0,31.2,22.0,12.1,81,67,39,30.20,30.04,20,4,27,0.00
2013-4-23,30.2,20.9,13.2,20.8,14.6,9.7,80,70,58,30.20,30.11,11,0,11,0.12
2013-4-24,42.9,30.8,17.9,25.4,18.7,12.6,75,57,38,30.29,30.16,6,0,7,0.02
2013-4-25,57.9,41.5,27.8,35.6,23.8,15.0,60,47,28,30.26,30.06,9,0,12,0.02
2013-4-26,55.7,45.0,37.5,27.3,21.6,18.7,55,38,22,30.36,30.13,12,2,13,0.00
2013-4-27,62.7,48.6,35.4,25.5,-8.0,-99.9,54,34,18,30.35,30.21,14,1,14,0.00
2013-4-28,68.7,59.2,39.3,27.2,-28.2,-99.9,37,24,15,30.19,30.09,8,0,9,0.00
2013-4-29,71.9,55.7,39.3,34.4,-2.4,-99.9,56,33,15,30.12,29.94,10,1,13,0.00
2013-4-30,65.3,51.5,34.3,34.7,28.3,18.9,69,39,27,30.09,29.93,16,1,17,0.00
2013-5-1,33.9,25.5,18.3,27.6,22.5,15.5,84,81,71,30.48,30.08,18,4,18,0.04
2013-5-2,36.5,26.3,17.0,19.8,16.7,13.3,81,63,41,30.56,30.41,10,0,10,0.14
2013-5-3,50.9,37.2,23.7,23.8,20.2,16.7,68,48,29,30.41,30.19,14,1,14,0.06
2013-5-4,54.3,40.4,29.6,29.5,24.2,19.9,63,49,34,30.29,30.18,6,0,57,0.00
2013-5-5,50.3,39.5,30.2,21.7,18.6,14.7,54,40,28,30.29,30.19,16,1,16,0.00
2013-5-6,62.0,46.4,33.0,33.2,26.5,17.5,58,43,30,30.23,30.10,11,0,11,0.00
2013-5-7,60.6,48.2,39.5,35.3,32.0,29.6,69,51,33,30.15,30.07,14,1,15,0.00
2013-5-8,45.8,39.7,36.8,38.7,34.7,33.2,85,76,66,30.19,30.10,8,1,13,0.24
2013-5-9,45.3,38.5,34.3,41.3,35.7,31.7,89,82,74,30.30,30.17,13,1,13,0.69
2013-5-10,53.6,42.5,32.0,40.6,34.4,29.4,88,69,44,30.39,30.27,28,1,28,0.02
2013-5-11,55.2,45.0,35.9,45.2,36.5,32.2,81,67,51,30.46,30.37,9,1,9,0.12
2013-5-12,65.4,52.5,39.2,37.5,34.5,31.1,70,49,31,30.38,30.31,10,1,13,0.08
2013-5-13,72.8,58.9,46.7,41.0,35.7,30.9,51,40,25,30.38,30.29,12,0,12,0.00
2013-5-14,69.9,57.9,50.1,41.1,37.5,33.1,57,44,29,30.28,30.17,13,1,13,0.00
2013-5-15,69.0,55.9,46.9,45.2,40.4,35.1,74,54,32,30.21,30.14,9,0,9,0.06
2013-5-16,71.0,56.8,43.8,43.4,37.8,33.4,77,50,25,30.16,30.07,11,1,11,0.02
2013-5-17,78.2,61.6,47.1,41.4,-8.6,-99.9,70,36,12,30.14,30.06,11,1,15,0.00
2013-5-18,70.5,56.4,46.2,32.9,3.5,-99.9,54,28,17,30.13,30.00,10,0,16,0.00
2013-5-19,57.2,48.1,39.3,35.3,31.1,26.3,63,49,30,30.06,29.97,10,0,11,0.00
2013-5-20,57.3,42.7,34.8,41.7,34.1,25.2,81,67,38,30.18,30.03,13,2,13,0.31
2013-5-21,60.0,46.6,33.2,38.4,33.7,29.5,82,59,33,30.18,30.07,12,1,12,0.02
2013-5-22,68.7,53.1,37.7,42.7,35.6,30.3,72,50,29,30.23,30.10,12,0,13,0.02
2013-5-23,53.4,46.5,43.1,45.5,41.0,37.1,85,75,58,30.25,30.18,12,2,13,0.00
2013-5-24,76.8,59.5,45.8,50.5,11.3,-99.9,89,53,16,30.21,30.14,12,1,12,0.00
2013-5-25,80.2,63.2,46.5,40.7,-17.0,-99.9,64,32,11,30.22,30.12,16,1,57,0.00
2013-5-26,82.7,64.8,53.7,38.9,-21.4,-99.9,49,25,11,30.19,30.08,8,1,9,0.00
2013-5-27,75.9,60.4,48.7,39.3,-9.2,-99.9,53,29,12,30.12,30.00,8,0,13,0.00
2013-5-28,73.5,59.2,46.5,48.6,38.8,24.8,74,46,24,30.06,29.88,11,1,13,0.00
2013-5-29,57.0,49.5,42.8,44.7,39.2,29.4,84,64,38,29.96,29.85,14,2,14,0.02
2013-5-30,64.9,50.6,39.9,33.1,14.2,-99.9,63,39,17,30.07,29.92,17,1,17,0.02
2013-5-31,63.6,51.8,41.7,25.9,-20.3,-99.9,48,28,16,30.20,30.05,11,1,18,0.00
2013-6-1,57.9,48.3,37.9,35.8,29.3,15.6,59,45,30,30.34,30.19,18,2,18,0.00
2013-6-2,72.8,56.0,39.5,40.3,32.9,15.0,66,42,22,30.34,30.12,10,1,12,0.00
2013-6-3,83.4,66.4,50.1,33.6,-27.7,-99.9,40,24,11,30.15,30.04,11,0,57,0.00
2013-6-4,73.7,58.0,46.7,47.3,36.2,20.0,79,44,25,30.30,30.15,15,1,15,0.20
2013-6-5,51.8,44.9,39.5,46.9,41.6,38.1,88,81,73,30.30,30.26,57,2,57,0.18
2013-6-6,68.7,55.5,41.3,46.3,41.9,37.5,84,59,34,30.30,30.23,6,0,7,0.00
2013-6-7,72.3,58.2,45.8,46.6,40.0,35.3,69,49,33,30.30,30.12,9,0,9,0.00
2013-6-8,66.5,58.7,50.1,47.4,39.7,34.9,53,46,36,30.24,30.06,21,2,21,0.00
2013-6-9,82.2,63.4,45.5,39.2,10.6,-99.9,61,36,16,30.27,30.21,11,1,11,0.00
2013-6-10,87.6,70.7,27.6,39.0,-20.7,-99.9,34,24,11,30.26,30.18,14,0,14,0.00
2013-6-11,91.2,74.7,60.9,33.3,-37.2,-99.9,30,17,10,30.22,30.11,12,2,14,0.00
2013-6-29,79.1,69.3,58.8,55.2,49.5,44.7,55,46,37,30.40,30.35,11,1,11,0.08
2013-6-30,71.7,59.8,54.1,57.0,50.1,44.0,74,65,48,30.42,30.36,6,0,8,0.10
2013-7-1,69.2,57.2,49.8,55.2,50.5,45.3,81,73,52,30.45,30.39,8,0,8,0.49
2013-7-2,72.8,59.2,47.6,52.5,46.4,37.8,82,61,27,30.44,30.35,10,1,12,0.49
2013-7-3,77.5,63.3,50.3,47.4,41.4,35.1,69,45,22,30.36,30.19,9,0,12,0.00
2013-7-4,80.6,66.5,53.9,45.0,41.5,36.5,59,40,21,30.26,30.20,11,1,11,0.00
2013-7-5,80.7,64.2,55.7,54.1,47.4,39.9,73,52,29,30.22,30.14,8,0,9,0.16
2013-7-6,77.5,63.4,17.2,55.9,49.0,8.4,73,57,30,30.29,30.17,10,0,10,0.20
2013-7-7,78.6,63.2,53.9,54.3,50.3,46.5,71,60,34,30.35,30.25,13,0,19,0.10
2013-7-8,84.0,69.2,55.2,53.2,49.5,44.0,77,50,25,30.36,30.30,10,0,10,0.16
2013-7-9,83.6,70.0,57.9,47.6,43.5,39.8,54,37,21,30.45,30.36,12,0,12,0.00
2013-7-10,84.2,65.5,57.2,57.5,49.0,41.0,76,53,32,30.44,30.32,12,1,14,1.08
2013-7-11,82.7,66.8,53.0,60.7,54.4,49.5,83,62,39,30.40,30.23,12,1,61,1.02
2013-7-12,80.0,69.1,60.2,54.0,51.0,46.6,65,50,34,30.31,30.23,13,1,13,0.00
2013-7-13,81.8,64.7,56.4,58.3,53.4,50.8,78,64,39,30.37,30.29,10,1,10,0.10
2013-7-14,70.1,61.2,53.4,57.7,52.8,-99.9,84,71,57,30.41,30.33,13,2,16,0.22
2013-7-15,63.8,57.2,51.0,57.1,52.6,43.0,88,79,60,30.40,30.34,11,1,11,0.29
2013-7-16,70.5,57.7,48.0,53.0,48.2,44.2,83,67,44,30.46,30.34,14,2,14,0.02
2013-7-17,75.5,62.1,52.5,55.4,50.9,47.5,85,65,38,30.46,30.38,12,2,12,0.00
2013-7-18,80.7,66.1,53.2,54.2,49.6,46.4,75,54,33,30.40,30.30,15,2,15,0.00
2013-7-19,72.3,63.0,53.6,54.9,51.6,47.1,77,62,48,30.39,30.32,59,1,59,0.00
2013-7-20,81.3,66.4,54.6,57.3,51.6,-99.9,82,57,30,30.34,30.21,11,1,57,0.00
2013-7-21,84.0,66.7,54.8,53.4,35.5,-99.9,73,47,17,30.27,30.21,9,1,12,0.00
2013-7-22,84.0,71.1,59.5,44.3,17.4,-99.9,44,32,15,30.29,30.22,57,1,57,0.00
2013-7-23,83.6,71.4,59.1,48.8,-5.7,-99.9,49,30,11,30.38,30.26,10,1,10,0.00
2013-7-24,68.0,60.5,54.8,60.4,54.4,48.9,85,75,50,30.45,30.34,10,1,12,0.39
2013-7-25,70.7,59.0,50.9,54.1,47.4,-99.9,84,65,44,30.44,30.28,26,2,26,0.14
2013-7-26,77.5,62.0,49.8,54.6,48.7,44.7,80,59,38,30.47,30.39,9,1,13,0.00
2013-7-27,78.0,62.4,53.0,53.3,47.7,43.0,80,56,28,30.42,30.25,8,0,9,0.00
2013-7-28,66.9,57.7,53.4,59.2,53.7,50.3,86,80,66,30.28,30.19,11,0,11,0.10
2013-7-29,68.0,57.8,52.8,55.7,50.1,-99.9,87,75,55,30.39,30.19,8,0,9,0.57
2013-7-30,75.5,62.6,49.4,51.2,48.7,45.3,81,59,36,30.47,30.38,10,0,12,0.02
2013-7-31,71.7,62.1,54.6,57.1,50.6,45.3,78,62,44,30.51,30.39,19,0,19,0.86
2013-8-1,78.4,63.3,55.4,58.6,52.7,46.9,86,66,34,30.45,30.24,57,0,57,0.84
2013-8-2,79.8,65.8,56.8,52.9,48.4,45.3,70,51,30,30.35,30.22,8,1,11,0.04
2013-8-3,75.3,62.1,53.6,60.2,53.5,14.4,86,69,53,30.46,30.31,8,1,11,0.16
2013-8-4,77.9,59.8,51.6,60.3,52.5,47.7,85,73,34,30.43,30.32,9,0,9,0.71
2013-8-5,74.8,62.0,17.2,53.5,49.4,9.1,84,62,33,30.39,30.28,9,1,11,0.14
2013-8-6,77.3,64.1,55.2,49.1,46.3,41.8,69,51,28,30.31,30.24,13,1,13,0.00
2013-8-7,60.2,56.8,53.0,54.8,50.6,45.7,84,74,59,30.34,30.25,5,0,9,0.14
2013-8-8,63.8,56.2,49.8,55.6,51.2,44.7,90,77,63,30.36,30.23,7,0,7,0.04
2013-8-9,69.6,55.3,46.9,53.3,47.5,42.5,81,70,51,30.42,30.34,7,0,10,0.31
2013-8-10,75.3,59.4,47.4,57.7,49.8,45.2,88,67,38,30.42,30.34,10,0,11,0.26
2013-8-11,71.7,58.6,52.5,52.8,47.2,-99.9,81,63,42,30.40,30.34,8,0,10,0.24
2013-8-12,73.7,57.8,49.2,55.4,49.3,44.5,81,69,48,30.41,30.35,10,0,10,0.02
2013-8-13,66.2,55.7,48.3,54.1,49.2,44.6,82,73,52,30.43,30.34,13,0,16,0.33
2013-8-14,71.6,58.2,48.3,51.3,47.3,44.6,83,64,37,30.42,30.33,13,0,13,0.02
2013-8-15,75.0,62.4,50.7,46.3,43.9,40.4,73,50,29,30.40,30.33,10,1,12,0.00
2013-8-16,79.3,64.8,52.1,47.9,44.2,37.3,71,47,23,30.40,30.36,10,0,10,0.00
2013-8-17,81.6,67.6,54.6,52.1,46.1,39.6,61,45,28,30.40,30.31,9,1,9,0.00
2013-8-18,80.0,66.6,57.9,52.9,48.1,43.4,71,50,26,30.39,30.31,8,0,57,0.02
2013-8-19,82.2,67.6,55.4,50.4,47.3,42.8,68,47,30,30.39,30.32,15,0,15,0.02
2013-8-20,84.5,69.3,56.4,50.0,44.6,40.3,64,41,22,30.35,30.28,10,1,10,0.00
2013-8-21,79.3,67.3,60.2,47.6,44.1,38.5,52,41,28,30.37,30.30,13,1,13,0.00
2013-8-22,76.6,62.6,54.3,56.9,51.7,44.5,82,64,41,30.46,30.32,10,0,11,0.96
2013-8-23,75.5,62.4,51.8,61.1,52.1,44.7,86,66,43,30.44,30.24,12,0,19,1.22
2013-8-24,78.4,64.9,54.6,53.2,48.5,43.4,64,52,36,30.35,30.25,10,0,11,0.00
2013-8-25,80.2,65.9,54.3,55.1,50.6,45.6,69,55,37,30.39,30.34,10,0,11,0.00
2013-8-26,82.2,68.0,56.8,55.8,50.5,46.8,64,51,34,30.40,30.34,7,0,7,0.00
2013-8-27,80.7,67.7,58.2,56.2,51.8,46.8,68,54,38,30.39,30.31,10,0,10,0.00
2013-8-28,78.9,66.4,56.4,53.5,46.7,40.3,65,47,30,30.38,30.32,5,0,11,0.00
2013-8-29,82.9,68.8,56.1,50.2,45.4,40.5,62,42,26,30.43,30.36,6,0,6,0.00
2013-8-30,81.8,67.9,61.8,53.6,48.6,44.3,58,48,30,30.43,30.36,6,0,8,0.00
2013-8-31,79.8,65.4,57.9,54.2,49.4,44.8,70,54,31,30.36,30.29,10,0,10,0.06
2013-9-1,70.5,59.8,54.3,59.8,53.0,48.3,83,73,61,30.40,30.34,13,1,13,0.12
2013-9-2,77.5,63.5,52.8,61.2,54.2,50.0,87,68,44,30.37,30.32,7,0,7,0.04
2013-9-3,80.7,67.8,58.4,53.5,51.0,48.8,71,53,33,30.38,30.32,14,1,14,0.02
2013-9-4,80.0,68.5,60.9,55.8,51.2,47.7,64,51,36,30.44,30.37,10,0,10,0.00
2013-9-5,83.6,69.6,57.0,53.1,46.9,40.3,66,44,26,30.44,30.38,10,1,10,0.00
2013-9-6,84.2,69.4,57.3,45.5,41.9,38.5,51,36,21,30.41,30.33,8,0,10,0.00
2013-9-7,82.5,67.8,54.8,48.1,42.9,37.8,61,40,21,30.38,30.30,10,1,10,0.00
2013-9-8,82.5,68.2,54.8,48.3,42.2,38.2,53,38,23,30.31,30.18,10,1,10,0.00
2013-9-9,78.8,63.2,53.0,52.6,47.3,39.5,82,54,33,30.26,30.15,16,2,16,0.00
2013-9-10,68.5,57.1,51.6,55.0,51.4,48.7,86,76,54,30.36,30.24,8,1,9,0.12
2013-9-11,62.6,56.6,53.6,57.0,53.7,51.4,89,83,72,30.38,30.34,6,0,8,0.24
2013-9-12,60.0,55.3,51.9,58.0,54.1,51.3,91,89,84,30.43,30.33,9,0,9,1.90
2013-9-13,59.3,54.3,52.1,57.4,53.7,51.5,93,90,83,30.34,30.18,14,2,15,2.26
2013-9-14,69.6,56.7,48.0,58.6,52.1,47.3,91,79,61,30.22,30.14,8,0,9,0.14
2013-9-15,56.6,50.7,48.7,53.7,49.6,47.2,91,89,80,30.40,30.21,11,1,11,0.45
2013-9-16,57.5,51.6,48.0,55.0,50.8,47.6,92,90,83,30.39,30.28,8,0,9,0.33
2013-9-17,71.0,58.2,46.5,52.4,48.9,45.5,91,69,41,30.31,30.15,6,0,8,0.22
2013-9-18,72.3,60.2,51.0,50.8,46.8,42.1,74,58,39,30.19,30.10,57,1,57,0.00
2013-9-19,56.1,50.0,44.9,45.8,39.1,-99.9,74,64,51,30.33,30.15,10,-6,11,0.00
2013-9-20,61.5,51.7,46.0,50.9,46.0,41.8,86,75,62,30.34,30.25,59,1,59,0.00
2013-9-21,71.7,57.4,45.8,46.5,44.3,41.4,85,60,35,30.27,30.11,7,0,9,0.00
2013-9-22,69.2,56.4,47.4,48.1,44.0,39.7,81,60,40,30.10,29.87,10,0,11,0.47
2013-9-23,56.6,46.8,39.9,43.8,37.4,30.8,87,66,40,30.25,29.81,15,1,15,0.98
2013-9-24,63.5,50.0,37.9,37.3,32.6,27.5,63,48,33,30.31,30.14,10,1,11,0.02
2013-9-25,70.5,56.9,42.9,40.0,33.0,27.2,62,39,24,30.13,29.88,12,1,13,0.00
2013-9-26,69.2,56.9,45.1,41.1,33.9,26.1,62,40,26,30.01,29.91,12,1,14,0.00
2013-9-27,63.3,47.6,36.6,43.2,36.1,30.9,84,62,39,30.13,29.95,12,1,15,0.00
2013-9-28,57.3,42.5,29.6,33.7,27.1,22.8,81,53,32,30.30,30.13,9,0,9,0.00
2013-9-29,66.5,51.9,37.4,32.4,26.2,20.6,50,35,23,30.29,30.13,10,0,10,0.00
2013-9-30,71.6,57.7,45.5,39.4,32.4,21.5,47,36,27,30.16,30.06,10,0,10,0.00
2013-10-1,66.9,55.5,46.7,39.8,34.4,28.3,59,42,31,30.26,30.15,12,1,57,0.00
2013-10-2,66.0,55.2,46.9,39.0,36.4,32.7,64,47,31,30.19,30.10,8,0,9,0.00
2013-10-3,66.9,53.0,41.1,41.6,35.3,28.6,80,50,25,30.10,29.94,10,1,13,0.00
2013-10-4,44.9,32.4,23.7,41.6,29.0,19.3,84,80,74,30.22,29.93,15,3,23,0.06
2013-10-5,48.0,34.6,24.6,25.0,18.6,14.3,76,51,25,30.30,30.19,21,1,21,0.02
2013-10-6,59.7,44.6,33.2,31.0,22.2,10.9,50,38,29,30.38,30.29,10,0,10,0.00
2013-10-7,68.0,52.1,39.7,31.0,25.8,21.4,46,35,22,30.36,30.17,5,0,9,0.00
2013-10-8,66.3,56.0,48.3,31.3,25.7,20.7,40,29,22,30.17,30.01,10,0,11,0.00
2013-10-9,65.4,51.5,40.6,35.5,30.5,25.5,72,43,26,30.13,30.05,10,0,10,0.00
2013-10-10,57.7,44.7,39.0,42.2,35.6,25.9,74,65,46,30.12,29.78,10,1,11,0.04
2013-10-11,52.8,43.6,39.0,35.8,29.7,22.5,75,55,38,30.19,29.79,57,1,57,0.06
2013-10-12,46.0,39.7,35.4,38.7,34.4,29.7,82,75,64,30.27,30.18,9,1,16,0.02
2013-10-13,54.6,42.6,32.7,44.7,36.3,28.6,83,73,54,30.26,30.10,15,1,16,0.14
2013-10-14,50.7,40.5,29.1,40.9,34.6,26.7,87,74,45,30.21,30.00,15,2,17,0.16
2013-10-15,32.7,28.7,24.2,26.6,23.3,19.2,83,73,66,30.29,30.20,14,2,14,0.02
2013-10-16,43.8,33.9,27.6,29.9,25.0,22.5,82,65,41,30.24,30.11,13,1,13,0.00
2013-10-17,47.1,36.0,29.1,30.9,25.5,21.2,71,61,44,30.18,30.10,8,0,8,0.00
2013-10-18,35.6,30.1,23.3,27.1,24.5,20.4,83,73,62,30.21,30.10,12,1,14,0.14
2013-10-19,49.8,36.8,26.9,28.6,24.4,20.0,75,57,39,30.20,30.08,6,0,6,0.02
2013-10-20,40.8,35.6,29.6,31.5,26.1,21.1,84,64,49,30.20,30.05,9,1,12,0.00
2013-10-21,43.8,34.4,27.1,29.9,25.8,23.0,80,66,44,30.28,30.20,9,0,9,0.12
2013-10-22,54.3,41.9,33.6,32.4,27.7,23.7,66,53,38,30.32,30.26,9,0,10,0.10
2013-10-23,57.9,44.7,35.6,33.7,28.3,24.0,60,49,33,30.33,30.25,8,0,8,0.00
2013-10-24,54.8,42.0,35.0,37.0,30.4,25.9,70,59,46,30.33,30.29,6,0,7,0.00
2013-10-25,58.2,44.8,33.0,32.8,29.9,27.7,75,54,33,30.31,30.23,8,0,8,0.00
2013-10-26,53.6,42.2,32.7,34.2,30.0,27.0,76,58,41,30.42,30.28,16,1,16,0.00
2013-10-27,58.1,45.7,36.6,29.2,25.0,21.3,61,42,25,30.28,30.05,4,0,5,0.00
2013-10-28,40.2,35.7,30.5,31.6,26.1,21.8,78,64,45,30.10,30.04,12,1,12,0.00
2013-10-29,50.1,36.1,26.4,31.5,27.1,22.0,79,66,43,30.07,29.98,6,0,8,0.02
2013-10-30,47.6,35.3,28.0,30.5,26.5,22.1,81,66,36,30.00,29.92,8,1,9,0.02
2013-10-31,47.6,34.6,25.8,24.3,19.1,15.9,70,50,30,30.05,29.95,10,0,13,0.00
2013-11-1,38.4,33.8,30.3,27.2,21.8,16.2,66,56,48,30.29,30.04,11,1,13,0.00
2013-11-2,52.1,38.8,28.7,27.7,21.8,16.7,69,48,33,30.28,30.01,7,0,8,0.00
2013-11-3,55.7,45.6,29.6,23.3,19.6,16.3,69,34,23,30.02,29.82,11,1,14,0.00
2013-11-4,32.7,28.2,23.5,26.1,20.6,15.7,79,67,54,30.09,29.95,12,2,16,0.00
2013-11-5,29.8,24.8,18.6,24.5,15.3,5.9,83,62,46,30.18,29.95,19,2,19,0.00
2013-11-6,42.6,32.1,18.3,17.0,12.5,-99.9,57,42,31,30.38,30.16,10,1,10,0.00
2013-11-7,48.0,35.7,26.0,22.4,16.9,12.3,52,43,32,30.41,30.17,14,0,14,0.00
2013-11-8,59.3,46.1,35.7,19.6,9.8,-99.9,44,29,18,30.18,30.03,11,1,17,0.00
2013-11-9,50.3,40.6,34.8,27.1,21.8,15.4,56,43,35,30.32,30.17,9,0,9,0.00
2013-11-10,55.5,42.1,32.9,24.9,21.9,18.3,61,43,22,30.34,30.28,6,0,10,0.00
2013-11-11,54.6,40.1,28.4,24.1,19.8,15.9,70,43,22,30.54,30.31,7,0,9,0.00
2013-11-12,46.9,34.7,26.4,29.6,24.2,20.1,75,61,44,30.58,30.44,8,0,57,0.00
2013-11-13,55.4,42.2,32.9,20.7,-8.0,-99.9,55,31,17,30.44,30.15,5,0,7,0.00
2013-11-14,48.0,39.3,33.2,28.8,22.6,10.8,66,49,28,30.18,29.97,12,1,12,0.00
2013-11-15,50.7,40.0,30.2,25.3,19.4,16.2,67,42,25,29.96,29.71,17,1,17,0.00
2013-11-16,46.9,38.5,31.6,23.3,18.5,15.4,59,42,27,29.74,29.61,13,1,13,0.00
2013-11-17,42.6,32.8,25.8,21.4,14.9,-99.9,60,48,35,30.19,29.74,11,1,11,0.00
2013-11-18,51.2,36.6,25.5,18.0,12.3,8.9,49,35,22,30.24,30.15,3,0,9,0.00
2013-11-19,50.5,40.3,32.0,20.0,15.3,11.5,41,34,25,30.15,29.93,7,0,7,0.00
2013-11-20,48.2,39.6,32.3,26.3,20.5,15.1,60,43,33,30.05,29.94,6,0,6,0.00
2013-11-21,36.8,12.7,4.4,27.5,8.2,0.6,77,75,60,30.39,30.04,14,2,14,0.00
2013-11-22,31.8,22.4,8.6,22.1,15.5,4.6,76,68,58,30.46,30.37,8,0,8,0.02
2013-11-23,29.4,21.7,17.7,19.0,13.0,8.4,75,63,48,30.49,30.30,7,1,13,0.02
2013-11-24,32.7,23.4,17.0,27.5,19.1,13.0,81,76,71,30.29,30.00,26,2,26,0.00
2013-11-25,30.3,25.7,19.9,25.1,19.3,13.3,78,70,61,30.30,30.03,22,4,30,0.00
2013-11-26,35.2,28.7,24.0,21.5,18.9,16.9,70,61,47,30.38,30.29,13,1,13,0.02
2013-11-27,45.3,34.0,24.9,23.2,19.0,14.8,64,50,37,30.29,30.17,6,0,6,0.02
2013-11-28,37.7,31.1,26.4,25.0,20.8,16.6,73,60,48,30.27,30.21,7,0,8,0.02
2013-11-29,47.1,36.0,26.6,21.3,18.8,16.2,72,47,31,30.26,30.17,6,0,6,0.00
2013-11-30,45.6,35.2,28.4,18.0,14.8,11.6,49,40,25,30.27,30.20,6,0,6,0.00
2013-12-1,45.5,36.7,29.1,21.0,15.7,10.7,48,39,31,30.22,30.03,7,1,7,0.00
2013-12-2,46.9,38.9,32.7,23.6,20.6,18.5,53,44,35,30.04,29.81,6,0,6,0.00
2013-12-3,47.1,32.7,7.8,25.0,17.2,3.3,76,51,37,29.81,29.67,14,3,14,0.00
2013-12-4,7.8,1.0,-2.8,3.3,-4.1,-9.6,74,71,64,29.94,29.68,8,2,14,0.00
2013-12-5,5.3,-0.1,-3.7,-1.5,-7.1,-11.2,68,65,60,29.96,29.84,10,1,10,0.00
2013-12-6,3.3,-1.5,-6.0,-4.1,-9.0,-14.3,68,63,59,30.07,29.95,7,1,9,0.00
2013-12-7,11.1,2.7,-1.9,5.5,-3.7,-8.2,71,67,65,30.05,29.73,6,0,6,0.00
2013-12-8,17.7,13.2,6.9,11.0,7.0,-0.3,72,69,65,29.95,29.65,8,0,9,0.00
2013-12-9,17.6,9.8,2.4,6.5,0.4,-4.7,69,60,49,30.10,29.93,5,0,5,0.00
2013-12-10,36.6,23.2,11.1,16.1,9.2,0.1,60,50,37,30.20,29.99,10,0,10,0.08
2013-12-11,28.4,20.7,11.6,17.0,10.5,5.6,72,59,43,30.33,30.19,7,0,7,0.02
2013-12-12,46.9,34.2,26.0,16.9,11.2,5.7,44,36,23,30.32,30.05,5,0,6,0.02
2013-12-13,39.2,30.5,22.8,14.2,10.5,5.5,59,40,28,30.15,29.95,12,1,14,0.02
2013-12-14,33.4,25.4,19.2,15.7,13.0,11.4,66,55,43,30.28,30.15,8,0,8,0.00
2013-12-15,46.4,34.7,26.9,21.7,16.3,12.0,54,44,32,30.26,30.19,6,0,7,0.00
2013-12-16,48.5,37.8,30.9,20.4,16.2,12.8,47,38,25,30.32,30.21,2,0,8,0.00
2013-12-17,47.6,36.8,29.4,20.4,16.6,12.2,50,40,31,30.38,30.22,7,0,7,0.00
2013-12-18,52.1,43.8,37.7,18.5,15.7,14.0,38,30,21,30.22,29.93,4,0,4,0.00
2013-12-19,47.6,36.5,19.7,22.4,18.4,14.9,78,46,30,29.93,29.75,12,1,12,0.00
2013-12-20,33.0,24.6,18.3,26.4,18.7,13.1,75,71,68,29.87,29.74,8,0,8,0.00
2013-12-21,29.6,21.2,16.8,18.4,14.4,12.2,77,69,54,29.91,29.66,15,2,15,0.00
2013-12-22,26.4,20.3,13.8,18.7,12.9,7.5,77,67,56,30.15,29.91,7,1,10,0.00
2013-12-23,31.2,22.8,15.2,19.6,14.8,9.8,76,65,54,30.25,30.14,8,0,8,0.00
2013-12-24,44.9,31.0,19.4,23.0,18.6,10.5,75,56,32,30.28,30.09,17,2,17,0.00
2013-12-25,32.7,23.9,17.0,11.7,8.1,4.3,62,47,35,30.36,30.25,8,0,57,0.00
2013-12-26,41.7,32.5,26.6,14.4,10.6,6.1,44,37,28,30.33,30.24,10,0,10,0.00
2013-12-27,47.1,35.2,27.1,20.8,14.9,9.6,48,40,31,30.34,30.16,1,0,1,0.00
2013-12-28,47.6,33.5,17.0,21.2,16.4,-99.9,76,48,30,30.16,29.99,14,2,16,0.00
2013-12-29,26.0,18.3,11.6,17.8,12.4,7.6,77,71,61,30.18,30.00,17,1,17,0.00
2013-12-30,35.7,27.4,21.3,18.4,14.7,12.0,67,54,44,30.23,30.02,10,0,11,0.02
2013-12-31,44.6,33.4,22.4,22.6,17.4,11.5,59,48,36,30.18,30.05,8,0,8,0.02
2014-1-1,29.6,25.4,17.4,22.2,18.3,11.3,77,68,58,30.26,30.00,11,2,15,0.02
2014-1-2,38.8,27.3,16.8,19.7,15.0,10.8,75,56,37,30.26,30.12,9,0,9,0.00